Time;durP1;ratioP1;P1;durP2;ratioP2;P2;SDS_P1;SDS_P2;PMS_P1;PMS_P2;Temp;Humidity;BMP_temperature;BMP_pressure;BME280_temperature;BME280_humidity;BME280_pressure;Samples;Min_cycle;Max_cycle;Signal;HPM_P1;HPM_P2
2022/02/15 00:01:07;;;;;;;12.93;6.03;;;8.30;78.80;;;;;;5017943;28;20448;-88
2022/02/15 00:03:33;;;;;;;9.27;5.20;;;8.40;78.90;;;;;;5038559;28;20480;-88
2022/02/15 00:05:59;;;;;;;12.83;7.53;;;8.50;79.00;;;;;;5034182;28;20181;-88
2022/02/15 00:08:25;;;;;;;9.00;5.78;;;8.50;78.90;;;;;;5018925;28;20451;-88
2022/02/15 00:10:51;;;;;;;11.80;6.20;;;8.50;79.10;;;;;;5016911;28;20181;-88
2022/02/15 00:13:17;;;;;;;16.42;6.30;;;8.50;79.10;;;;;;5016225;28;20452;-89
2022/02/15 00:15:43;;;;;;;10.27;6.87;;;8.60;78.90;;;;;;5017255;28;20193;-89
2022/02/15 00:18:10;;;;;;;10.30;6.00;;;8.60;78.90;;;;;;5020157;28;20447;-89
2022/02/15 00:20:36;;;;;;;19.08;5.88;;;8.60;78.80;;;;;;5037999;28;20287;-88
2022/02/15 00:23:02;;;;;;;9.80;5.25;;;8.60;78.90;;;;;;5002451;28;20194;-88
2022/02/15 00:25:28;;;;;;;12.85;5.78;;;8.60;78.90;;;;;;5019141;28;20178;-87
2022/02/15 00:27:54;;;;;;;15.20;5.10;;;8.60;79.00;;;;;;5019697;28;20265;-89
2022/02/15 00:30:20;;;;;;;9.73;5.57;;;8.50;79.00;;;;;;5019926;28;20425;-89
2022/02/15 00:32:46;;;;;;;7.43;5.85;;;8.50;79.10;;;;;;5036892;28;20957;-88
2022/02/15 00:35:13;;;;;;;9.95;4.90;;;8.60;79.20;;;;;;5019735;28;20237;-88
2022/02/15 00:37:39;;;;;;;10.43;5.57;;;8.60;78.90;;;;;;5037587;28;20188;-88
2022/02/15 00:40:06;;;;;;;13.25;4.28;;;8.70;78.90;;;;;;5019458;28;20205;-89
2022/02/15 00:42:32;;;;;;;6.20;4.20;;;8.70;78.80;;;;;;5019636;28;20662;-88
2022/02/15 00:44:58;;;;;;;13.85;5.47;;;8.80;78.80;;;;;;5020782;28;20193;-88
2022/02/15 00:47:23;;;;;;;9.00;4.37;;;8.80;79.40;;;;;;5041848;28;20190;-89
2022/02/15 00:49:49;;;;;;;12.30;4.50;;;8.80;78.60;;;;;;5025545;28;20197;-89
2022/02/15 00:52:15;;;;;;;13.43;3.90;;;8.80;78.80;;;;;;5038701;28;20194;-88
2022/02/15 00:54:41;;;;;;;6.73;4.27;;;8.70;78.90;;;;;;5021238;28;20188;-89
2022/02/15 00:57:06;;;;;;;9.70;4.30;;;8.70;79.10;;;;;;5020091;28;20256;-88
2022/02/15 00:59:32;;;;;;;10.80;4.70;;;8.70;79.60;;;;;;5040454;28;20202;-88
2022/02/15 01:01:58;;;;;;;13.50;6.07;;;8.70;79.60;;;;;;5021913;28;20431;-88
2022/02/15 01:04:23;;;;;;;5.33;4.80;;;8.70;80.40;;;;;;5020998;28;20202;-88
2022/02/15 01:06:49;;;;;;;6.10;4.13;;;8.70;79.80;;;;;;5021354;28;20176;-88
2022/02/15 01:09:15;;;;;;;10.80;4.87;;;8.70;79.90;;;;;;5045372;28;20204;-88
2022/02/15 01:11:40;;;;;;;14.00;5.10;;;8.80;79.80;;;;;;5041050;28;20194;-88
2022/02/15 01:14:07;;;;;;;8.37;3.80;;;8.80;79.70;;;;;;5019262;28;20643;-88
2022/02/15 01:16:33;;;;;;;6.35;4.78;;;8.80;79.80;;;;;;5018831;28;20661;-88
2022/02/15 01:18:58;;;;;;;5.60;3.67;;;8.80;79.80;;;;;;5018656;28;20230;-88
2022/02/15 01:21:24;;;;;;;5.70;3.97;;;8.80;79.60;;;;;;5009808;28;20237;-88
2022/02/15 01:23:50;;;;;;;12.63;3.90;;;8.80;79.50;;;;;;5017899;28;20231;-87
2022/02/15 01:26:15;;;;;;;5.53;3.80;;;8.80;79.50;;;;;;5018160;28;20177;-88
2022/02/15 01:28:41;;;;;;;9.00;3.67;;;8.80;79.40;;;;;;5036665;28;20646;-88
2022/02/15 01:31:16;;;;;;;7.73;3.50;;;8.70;79.50;;;;;;5018840;28;20186;-88
2022/02/15 01:33:42;;;;;;;5.80;3.58;;;8.70;79.70;;;;;;5018262;28;20205;-88
2022/02/15 01:36:07;;;;;;;8.47;4.10;;;8.80;79.80;;;;;;5019128;28;20174;-88
2022/02/15 01:38:33;;;;;;;10.30;4.50;;;8.90;80.50;;;;;;5019713;28;20190;-88
2022/02/15 01:41:01;;;;;;;6.83;3.90;;;8.80;79.50;;;;;;5039258;28;20232;-88
2022/02/15 01:43:27;;;;;;;10.77;4.47;;;8.80;79.40;;;;;;5018393;28;20190;-88
2022/02/15 01:45:53;;;;;;;7.82;4.57;;;8.80;79.50;;;;;;5034025;28;20301;-88
2022/02/15 01:48:19;;;;;;;5.20;4.00;;;8.70;79.60;;;;;;5018987;28;20205;-88
2022/02/15 01:50:45;;;;;;;8.25;4.53;;;8.70;79.80;;;;;;5019590;28;20182;-89
2022/02/15 01:53:11;;;;;;;5.78;4.95;;;8.70;79.90;;;;;;5017712;28;20304;-88
2022/02/15 01:55:37;;;;;;;7.70;4.53;;;8.70;80.00;;;;;;5014803;28;20210;-89
2022/02/15 01:58:03;;;;;;;8.10;4.70;;;8.60;80.10;;;;;;5002049;28;20178;-89
2022/02/15 02:00:29;;;;;;;9.07;4.50;;;8.60;80.20;;;;;;5018150;28;20468;-89
2022/02/15 02:02:54;;;;;;;11.70;4.77;;;8.70;80.40;;;;;;5035586;28;20198;-88
2022/02/15 02:08:04;;;;;;;6.47;5.18;;;8.70;80.30;;;;;;5036292;28;20869;-88
2022/02/15 02:10:30;;;;;;;8.03;5.30;;;8.60;80.30;;;;;;5038695;28;20227;-88
2022/02/15 02:12:55;;;;;;;13.03;6.10;;;8.60;80.50;;;;;;5018286;28;20205;-88
2022/02/15 02:15:24;;;;;;;16.90;6.27;;;8.60;80.70;;;;;;5019255;28;20201;-88
2022/02/15 02:17:51;;;;;;;13.23;5.97;;;8.50;81.00;;;;;;5038600;28;20553;-88
2022/02/15 02:20:17;;;;;;;10.98;6.13;;;8.70;81.10;;;;;;5023354;28;20543;-86
2022/02/15 02:22:43;;;;;;;9.43;5.65;;;8.60;80.90;;;;;;5024537;28;20204;-87
2022/02/15 02:25:11;;;;;;;10.15;6.38;;;8.60;81.00;;;;;;5026476;28;20253;-88
2022/02/15 02:27:39;;;;;;;10.57;6.15;;;8.60;81.20;;;;;;5025355;28;20202;-88
2022/02/15 02:30:06;;;;;;;12.77;7.30;;;8.60;81.30;;;;;;5024341;28;20182;-88
2022/02/15 02:32:32;;;;;;;11.50;6.18;;;8.70;81.50;;;;;;5038765;28;20275;-88
2022/02/15 02:35:01;;;;;;;14.43;7.20;;;8.60;81.50;;;;;;5010181;28;20178;-86
2022/02/15 02:37:27;;;;;;;11.25;7.60;;;8.70;81.60;;;;;;5035377;28;20181;-87
2022/02/15 02:39:54;;;;;;;15.50;7.53;;;8.60;81.40;;;;;;5016900;28;20212;-87
2022/02/15 02:42:26;;;;;;;10.85;7.15;;;8.60;81.60;;;;;;5017663;28;20196;-88
2022/02/15 02:44:57;;;;;;;20.88;7.65;;;8.70;81.80;;;;;;5017819;28;20174;-87
2022/02/15 02:47:25;;;;;;;10.63;6.57;;;8.80;81.70;;;;;;5018350;28;20186;-87
2022/02/15 02:49:51;;;;;;;18.17;8.43;;;8.80;81.40;;;;;;5036514;28;20182;-88
2022/02/15 02:52:17;;;;;;;15.48;8.40;;;8.80;81.30;;;;;;5023364;28;20182;-87
2022/02/15 02:54:43;;;;;;;16.83;7.10;;;8.70;81.40;;;;;;5022126;28;20269;-87
2022/02/15 02:57:09;;;;;;;14.70;9.07;;;8.80;81.30;;;;;;5020619;28;20197;-88
2022/02/15 02:59:34;;;;;;;12.17;9.17;;;8.80;81.00;;;;;;5022115;28;20198;-87
2022/02/15 03:02:01;;;;;;;15.40;8.13;;;8.70;81.00;;;;;;5042210;28;20515;-88
2022/02/15 03:04:26;;;;;;;14.30;6.65;;;8.60;81.00;;;;;;5028280;28;20194;-87
2022/02/15 03:06:52;;;;;;;13.87;7.10;;;8.60;81.30;;;;;;5042636;28;20186;-87
2022/02/15 03:09:18;;;;;;;20.10;8.10;;;8.50;81.60;;;;;;5018788;28;20425;-88
2022/02/15 03:11:44;;;;;;;16.30;6.70;;;8.60;81.80;;;;;;5018295;28;20189;-89
2022/02/15 03:14:10;;;;;;;10.02;6.10;;;8.70;81.80;;;;;;5016627;28;20214;-89
2022/02/15 03:16:35;;;;;;;20.80;8.23;;;8.70;81.80;;;;;;5018801;28;20662;-88
2022/02/15 03:19:02;;;;;;;16.53;7.60;;;8.60;81.70;;;;;;5033503;28;20801;-88
2022/02/15 03:21:28;;;;;;;28.45;9.02;;;8.60;81.80;;;;;;5016179;28;20208;-87
2022/02/15 03:23:53;;;;;;;14.82;8.02;;;8.70;81.60;;;;;;5027928;28;20197;-88
2022/02/15 03:26:19;;;;;;;12.27;7.80;;;8.70;81.60;;;;;;5019593;28;20182;-88
2022/02/15 03:28:45;;;;;;;15.05;8.15;;;8.60;81.60;;;;;;5017295;28;20216;-88
2022/02/15 03:31:11;;;;;;;12.10;7.87;;;8.60;81.60;;;;;;5017415;28;20181;-88
2022/02/15 03:33:37;;;;;;;10.60;7.57;;;8.60;81.60;;;;;;5036323;28;20452;-88
2022/02/15 03:36:04;;;;;;;12.27;6.93;;;8.50;81.70;;;;;;5017271;28;20264;-88
2022/02/15 03:38:30;;;;;;;17.70;8.07;;;8.50;81.60;;;;;;5017556;28;20432;-88
2022/02/15 03:43:40;;;;;;;15.02;7.40;;;8.50;81.70;;;;;;5034923;28;20255;-87
2022/02/15 03:46:06;;;;;;;15.77;7.00;;;8.50;81.90;;;;;;5019571;28;20178;-87
2022/02/15 03:48:32;;;;;;;12.20;7.70;;;8.60;81.90;;;;;;5020442;28;20250;-87
2022/02/15 03:50:58;;;;;;;10.37;7.00;;;8.60;81.90;;;;;;5024945;28;20886;-88
2022/02/15 03:53:24;;;;;;;18.13;9.17;;;8.60;82.00;;;;;;5027906;28;20492;-87
2022/02/15 03:55:50;;;;;;;22.40;8.15;;;8.60;81.90;;;;;;5029526;28;20188;-87
2022/02/15 03:58:16;;;;;;;13.80;8.23;;;8.70;81.90;;;;;;5045389;28;20261;-87
2022/02/15 04:00:42;;;;;;;13.93;7.03;;;8.70;81.90;;;;;;5023969;28;20238;-86
2022/02/15 04:03:08;;;;;;;14.93;8.53;;;8.70;82.10;;;;;;5037898;28;20440;-88
2022/02/15 04:05:34;;;;;;;17.38;7.65;;;8.60;82.10;;;;;;5020315;28;20169;-87
2022/02/15 04:08:00;;;;;;;19.70;8.05;;;8.70;82.20;;;;;;5038023;28;20189;-87
2022/02/15 04:10:26;;;;;;;15.60;8.20;;;8.60;82.10;;;;;;5038090;28;20186;-87
2022/02/15 04:12:52;;;;;;;12.13;7.60;;;8.70;82.10;;;;;;5019957;28;20440;-87
2022/02/15 04:15:18;;;;;;;13.97;7.50;;;8.70;82.00;;;;;;5020355;28;20421;-87
2022/02/15 04:17:45;;;;;;;14.57;8.85;;;8.70;81.80;;;;;;5023371;28;20185;-86
2022/02/15 04:20:12;;;;;;;9.95;6.45;;;8.70;81.90;;;;;;5026847;28;20201;-87
2022/02/15 04:22:37;;;;;;;14.70;8.75;;;8.70;81.70;;;;;;5038361;28;20186;-87
2022/02/15 04:25:04;;;;;;;20.27;6.90;;;8.70;81.70;;;;;;5036904;28;20257;-87
2022/02/15 04:27:31;;;;;;;19.85;8.85;;;8.80;81.40;;;;;;5020011;28;20182;-89
2022/02/15 04:29:58;;;;;;;15.90;7.03;;;8.90;81.20;;;;;;5020684;28;20186;-88
2022/02/15 04:32:23;;;;;;;12.65;7.20;;;8.80;80.90;;;;;;5037513;28;20540;-88
2022/02/15 04:34:50;;;;;;;18.03;8.03;;;8.80;81.10;;;;;;5019176;28;20671;-89
2022/02/15 04:37:15;;;;;;;10.65;7.75;;;8.90;80.90;;;;;;5036803;28;20181;-88
2022/02/15 04:39:41;;;;;;;11.30;7.37;;;8.80;80.80;;;;;;5019395;28;20201;-88
2022/02/15 04:42:07;;;;;;;11.95;7.22;;;9.00;80.60;;;;;;5019719;28;20196;-89
2022/02/15 04:44:33;;;;;;;14.07;6.30;;;9.10;80.40;;;;;;5036663;28;20194;-88
2022/02/15 04:46:59;;;;;;;13.80;6.82;;;9.00;79.80;;;;;;5037105;28;20253;-89
2022/02/15 04:49:25;;;;;;;16.07;6.80;;;9.10;80.00;;;;;;5019104;28;20173;-89
2022/02/15 04:51:52;;;;;;;10.70;6.25;;;8.90;79.80;;;;;;5019418;28;20425;-89
2022/02/15 04:54:20;;;;;;;11.85;6.85;;;8.80;80.00;;;;;;5036308;28;20263;-89
2022/02/15 04:56:46;;;;;;;11.48;6.05;;;8.70;80.30;;;;;;5037040;28;20197;-89
2022/02/15 04:59:11;;;;;;;11.00;6.50;;;8.70;80.50;;;;;;5019438;28;20567;-89
2022/02/15 05:01:38;;;;;;;11.77;6.30;;;8.70;80.70;;;;;;5018765;28;20460;-89
2022/02/15 05:04:04;;;;;;;14.63;6.47;;;8.70;80.60;;;;;;5018649;28;20519;-89
2022/02/15 05:06:30;;;;;;;9.98;5.72;;;8.60;80.50;;;;;;5019647;28;20189;-88
2022/02/15 05:08:55;;;;;;;9.33;5.73;;;8.40;80.50;;;;;;5019574;28;20241;-89
2022/02/15 05:11:21;;;;;;;8.70;5.53;;;8.40;80.70;;;;;;5020455;28;20436;-89
2022/02/15 05:13:47;;;;;;;10.00;5.33;;;8.40;80.80;;;;;;5021286;28;20206;-88
2022/02/15 05:16:13;;;;;;;6.13;3.20;;;8.30;81.20;;;;;;5039630;28;20460;-88
2022/02/15 05:18:38;;;;;;;6.73;3.03;;;8.40;81.60;;;;;;5023348;28;20186;-89
2022/02/15 05:21:04;;;;;;;6.97;3.13;;;8.10;82.10;;;;;;5040969;28;20228;-87
2022/02/15 05:23:31;;;;;;;6.23;2.63;;;8.00;82.80;;;;;;5026723;28;20281;-86
2022/02/15 05:25:57;;;;;;;6.53;3.00;;;8.00;83.20;;;;;;5027662;28;20261;-88
2022/02/15 05:28:24;;;;;;;10.07;3.53;;;8.00;83.70;;;;;;5026295;28;20274;-88
2022/02/15 05:30:49;;;;;;;5.55;4.45;;;7.90;84.10;;;;;;5022591;28;20178;-88
2022/02/15 05:33:15;;;;;;;11.33;5.43;;;7.90;84.70;;;;;;5019091;28;20522;-88
2022/02/15 05:35:41;;;;;;;14.70;6.93;;;8.00;85.00;;;;;;5020832;28;20232;-89
2022/02/15 05:38:07;;;;;;;15.93;7.07;;;8.00;85.40;;;;;;5019037;28;20186;-89
2022/02/15 05:40:33;;;;;;;15.52;7.72;;;8.10;85.80;;;;;;5018754;28;20278;-89
2022/02/15 05:42:59;;;;;;;18.90;8.50;;;8.10;86.20;;;;;;5018435;28;20194;-88
2022/02/15 05:45:26;;;;;;;22.15;6.80;;;8.10;86.30;;;;;;5036470;28;20791;-90
2022/02/15 05:47:52;;;;;;;15.25;7.15;;;8.00;86.10;;;;;;5036129;28;20170;-89
2022/02/15 05:53:02;;;;;;;21.38;7.50;;;8.00;86.10;;;;;;5036647;28;20587;-90
2022/02/15 05:55:28;;;;;;;15.77;6.60;;;8.00;85.90;;;;;;5019140;28;20178;-89
2022/02/15 05:57:54;;;;;;;14.07;7.20;;;8.00;85.70;;;;;;5019215;28;20507;-89
2022/02/15 06:00:19;;;;;;;15.97;6.53;;;8.00;85.80;;;;;;5018704;28;20278;-88
2022/02/15 06:02:46;;;;;;;20.30;6.50;;;7.90;85.70;;;;;;5019256;28;20726;-90
2022/02/15 06:05:13;;;;;;;13.35;6.38;;;8.00;85.50;;;;;;5037466;28;20174;-91
2022/02/15 06:07:39;;;;;;;19.83;6.95;;;8.00;85.40;;;;;;5019831;28;20289;-90
2022/02/15 06:10:05;;;;;;;21.93;6.03;;;8.00;85.30;;;;;;5022771;28;20208;-91
2022/02/15 06:12:31;;;;;;;18.38;6.25;;;8.00;85.30;;;;;;5037132;28;20447;-91
2022/02/15 06:14:57;;;;;;;17.80;6.50;;;8.10;85.20;;;;;;5034784;28;20178;-89
2022/02/15 06:17:30;;;;;;;11.80;5.23;;;8.00;84.80;;;;;;5017052;28;20213;-90
2022/02/15 06:19:56;;;;;;;21.00;5.65;;;8.10;84.80;;;;;;5017303;28;20202;-90
2022/02/15 06:22:21;;;;;;;15.03;5.53;;;8.20;84.60;;;;;;5030084;28;20261;-90
2022/02/15 06:24:47;;;;;;;16.50;7.60;;;8.20;84.50;;;;;;5017639;28;20642;-89
2022/02/15 06:27:14;;;;;;;11.30;5.60;;;8.10;84.40;;;;;;5018089;28;20231;-90
2022/02/15 06:29:40;;;;;;;12.27;7.15;;;8.20;84.50;;;;;;5019347;28;20435;-90
2022/02/15 06:32:07;;;;;;;22.97;6.67;;;8.10;84.50;;;;;;5023892;28;20186;-90
2022/02/15 06:34:33;;;;;;;9.25;5.70;;;8.10;84.60;;;;;;5024141;28;20210;-90
2022/02/15 06:36:59;;;;;;;10.83;5.57;;;8.10;84.80;;;;;;5021032;28;20684;-90
2022/02/15 06:39:24;;;;;;;12.57;4.83;;;8.10;84.70;;;;;;5020012;28;20185;-90
2022/02/15 06:41:50;;;;;;;14.03;5.30;;;8.10;84.70;;;;;;5015381;28;20434;-90
2022/02/15 06:44:20;;;;;;;12.10;4.67;;;8.20;84.70;;;;;;5018004;28;20666;-90
2022/02/15 06:46:46;;;;;;;20.48;5.05;;;8.10;84.60;;;;;;5018383;28;20254;-91
2022/02/15 06:49:11;;;;;;;8.50;4.70;;;8.10;84.60;;;;;;5035017;28;20202;-89
2022/02/15 06:51:37;;;;;;;13.90;5.93;;;8.20;84.40;;;;;;5020328;28;20451;-89
2022/02/15 06:54:03;;;;;;;12.47;5.10;;;8.30;84.20;;;;;;5025073;28;20255;-89
2022/02/15 06:56:29;;;;;;;6.83;4.70;;;8.30;84.00;;;;;;5023899;28;20186;-89
2022/02/15 06:58:56;;;;;;;14.35;4.80;;;8.40;83.80;;;;;;5013474;28;20421;-90
2022/02/15 07:01:21;;;;;;;13.23;4.75;;;8.30;83.40;;;;;;4999126;28;20737;-91
2022/02/15 07:03:47;;;;;;;18.93;4.63;;;8.30;83.40;;;;;;5031703;28;20193;-90
2022/02/15 07:06:13;;;;;;;8.93;4.03;;;8.40;83.20;;;;;;5017388;28;20182;-90
2022/02/15 07:08:38;;;;;;;11.40;4.37;;;8.40;83.10;;;;;;5017003;28;20184;-90
2022/02/15 07:11:04;;;;;;;15.00;4.63;;;8.30;83.00;;;;;;5017201;28;20429;-90
2022/02/15 07:13:30;;;;;;;7.60;3.63;;;8.30;82.90;;;;;;5016682;28;20204;-89
2022/02/15 07:15:56;;;;;;;12.77;3.70;;;8.30;82.80;;;;;;5017442;28;20290;-90
2022/02/15 07:18:23;;;;;;;10.70;4.37;;;8.30;82.70;;;;;;5017144;28;20466;-90
2022/02/15 07:20:49;;;;;;;11.00;4.50;;;8.20;82.60;;;;;;5018082;28;20205;-90
2022/02/15 07:23:14;;;;;;;13.53;3.70;;;8.30;82.50;;;;;;5018463;28;20196;-90
2022/02/15 07:25:40;;;;;;;10.83;3.60;;;8.30;82.30;;;;;;5039835;28;20940;-90
2022/02/15 07:28:06;;;;;;;17.83;3.65;;;8.40;82.00;;;;;;5042214;28;20420;-91
2022/02/15 07:30:35;;;;;;;16.17;4.80;;;8.40;81.60;;;;;;5024400;28;20550;-90
2022/02/15 07:33:02;;;;;;;8.40;3.88;;;8.30;81.50;;;;;;5023234;28;20201;-90
2022/02/15 07:35:28;;;;;;;9.40;4.93;;;8.30;81.20;;;;;;5023756;28;20662;-90
2022/02/15 07:37:54;;;;;;;17.07;3.83;;;8.40;81.00;;;;;;5030174;28;20191;-90
2022/02/15 07:40:21;;;;;;;10.43;3.87;;;8.30;80.70;;;;;;5028371;28;20539;-89
2022/02/15 07:42:50;;;;;;;7.78;4.60;;;8.50;80.50;;;;;;5025648;28;20196;-90
2022/02/15 07:45:18;;;;;;;20.50;3.85;;;8.40;80.20;;;;;;5024314;28;20178;-90
2022/02/15 07:47:47;;;;;;;16.02;5.78;;;8.40;80.20;;;;;;5027239;28;20181;-88
2022/02/15 07:50:17;;;;;;;16.92;4.68;;;8.30;80.00;;;;;;5047071;28;20206;-90
2022/02/15 07:52:57;;;;;;;17.55;5.35;;;8.40;79.80;;;;;;5027619;28;20221;-90
2022/02/15 07:55:24;;;;;;;13.95;4.80;;;8.40;79.70;;;;;;5028526;28;20268;-91
2022/02/15 07:57:50;;;;;;;7.72;3.92;;;8.40;79.80;;;;;;5025325;28;20302;-90
2022/02/15 08:00:21;;;;;;;10.60;5.18;;;8.30;79.70;;;;;;5027440;28;20213;-90
2022/02/15 08:02:48;;;;;;;7.47;4.05;;;8.50;79.70;;;;;;5023633;28;20280;-90
2022/02/15 08:05:14;;;;;;;7.80;4.38;;;8.40;79.70;;;;;;5025965;28;20216;-90
2022/02/15 08:07:44;;;;;;;11.03;4.47;;;8.40;79.20;;;;;;5023969;28;20221;-90
2022/02/15 08:10:09;;;;;;;11.00;4.00;;;8.30;79.20;;;;;;5026597;28;20439;-90
2022/02/15 08:12:36;;;;;;;9.07;5.07;;;8.30;79.40;;;;;;5034650;28;20272;-90
2022/02/15 08:15:02;;;;;;;6.30;3.60;;;8.10;79.50;;;;;;5038279;28;20188;-90
2022/02/15 08:17:28;;;;;;;8.18;3.63;;;8.10;79.50;;;;;;5030270;28;20800;-90
2022/02/15 08:19:54;;;;;;;7.23;3.63;;;8.40;79.40;;;;;;5028527;28;20232;-90
2022/02/15 08:22:21;;;;;;;6.63;3.30;;;8.40;78.50;;;;;;5030499;28;20186;-90
2022/02/15 08:24:47;;;;;;;7.10;2.80;;;8.30;78.30;;;;;;5029481;28;20680;-90
2022/02/15 08:27:14;;;;;;;8.13;3.35;;;8.40;78.50;;;;;;5025608;28;20182;-90
2022/02/15 08:29:39;;;;;;;4.65;2.95;;;8.30;78.30;;;;;;5025332;28;20181;-90
2022/02/15 08:32:06;;;;;;;8.80;3.03;;;8.10;78.10;;;;;;5023462;28;20228;-90
2022/02/15 08:34:33;;;;;;;8.65;2.42;;;8.00;78.00;;;;;;5022410;28;20452;-90
2022/02/15 08:36:59;;;;;;;7.97;2.80;;;8.10;77.80;;;;;;5037453;28;20174;-91
2022/02/15 08:39:25;;;;;;;11.18;3.53;;;8.00;77.70;;;;;;5019972;28;20247;-90
2022/02/15 08:41:51;;;;;;;6.35;2.55;;;8.00;77.50;;;;;;5019916;28;20272;-90
2022/02/15 08:44:17;;;;;;;4.60;2.53;;;8.00;77.40;;;;;;5019387;28;20217;-90
2022/02/15 08:46:43;;;;;;;18.77;3.30;;;8.10;77.50;;;;;;5038091;28;20789;-90
2022/02/15 08:49:08;;;;;;;10.00;4.10;;;8.30;77.20;;;;;;5019649;28;20178;-90
2022/02/15 08:51:37;;;;;;;7.83;2.67;;;8.30;76.90;;;;;;5036090;28;20317;-90
2022/02/15 08:54:04;;;;;;;6.00;2.17;;;8.20;76.40;;;;;;5018898;28;20514;-90
2022/02/15 08:56:29;;;;;;;7.68;2.88;;;8.20;76.10;;;;;;5019372;28;20185;-90
2022/02/15 08:58:55;;;;;;;5.60;2.43;;;8.00;76.20;;;;;;5019046;28;20284;-90
2022/02/15 09:01:21;;;;;;;8.70;2.80;;;8.00;76.50;;;;;;5019020;28;20209;-89
2022/02/15 09:03:47;;;;;;;8.40;2.80;;;8.10;76.30;;;;;;5018325;28;20194;-90
2022/02/15 09:06:13;;;;;;;4.80;2.33;;;8.20;76.20;;;;;;5018463;28;20186;-90
2022/02/15 09:08:39;;;;;;;6.03;2.50;;;8.40;75.80;;;;;;5019067;28;20308;-88
2022/02/15 09:11:04;;;;;;;5.63;2.33;;;8.50;75.40;;;;;;5018981;28;20955;-88
2022/02/15 09:13:30;;;;;;;7.47;3.30;;;8.30;75.00;;;;;;5018942;28;20457;-89
2022/02/15 09:15:56;;;;;;;7.45;3.03;;;8.40;75.20;;;;;;5020158;28;20189;-88
2022/02/15 09:18:22;;;;;;;10.10;2.10;;;8.30;74.80;;;;;;5019651;28;20178;-89
2022/02/15 09:20:48;;;;;;;8.10;3.33;;;8.30;74.90;;;;;;5015963;28;20457;-88
2022/02/15 09:23:14;;;;;;;13.87;3.43;;;8.50;74.80;;;;;;5016052;28;20433;-89
2022/02/15 09:25:40;;;;;;;5.78;2.50;;;8.50;73.80;;;;;;5024115;28;20417;-89
2022/02/15 09:28:06;;;;;;;10.43;2.00;;;8.60;73.60;;;;;;5024260;28;20182;-89
2022/02/15 09:30:32;;;;;;;6.40;1.90;;;8.60;73.20;;;;;;5024761;28;20622;-89
2022/02/15 09:32:57;;;;;;;4.07;2.15;;;8.60;72.90;;;;;;5020441;28;20493;-89
2022/02/15 09:35:23;;;;;;;6.53;2.63;;;8.70;72.20;;;;;;5036855;28;20186;-89
2022/02/15 09:37:49;;;;;;;5.17;2.13;;;8.80;71.80;;;;;;5019331;28;20188;-89
2022/02/15 09:40:15;;;;;;;8.20;2.40;;;8.60;71.10;;;;;;5020084;28;20198;-89
2022/02/15 09:42:40;;;;;;;5.03;2.13;;;8.50;71.10;;;;;;5021432;28;20194;-89
2022/02/15 09:45:08;;;;;;;4.63;2.00;;;8.60;71.20;;;;;;5022716;28;20433;-89
2022/02/15 09:47:35;;;;;;;3.95;1.80;;;8.60;71.10;;;;;;5022281;28;20170;-89
2022/02/15 09:50:06;;;;;;;8.82;2.47;;;8.70;71.10;;;;;;5042385;28;20178;-90
2022/02/15 09:52:33;;;;;;;7.80;2.08;;;8.70;70.50;;;;;;5023812;28;20232;-89
2022/02/15 09:54:59;;;;;;;7.32;2.03;;;8.80;70.30;;;;;;5024028;28;20177;-89
2022/02/15 09:57:25;;;;;;;4.43;1.63;;;8.90;69.70;;;;;;5023046;28;20274;-89
2022/02/15 09:59:52;;;;;;;6.88;2.03;;;8.90;69.80;;;;;;5019103;28;20539;-89
2022/02/15 10:02:23;;;;;;;3.05;1.77;;;8.90;69.60;;;;;;5022211;28;20208;-88
2022/02/15 10:04:57;;;;;;;7.32;1.75;;;9.00;69.70;;;;;;5039312;28;20189;-89
2022/02/15 10:07:24;;;;;;;2.47;1.80;;;8.90;69.70;;;;;;5022008;28;20174;-89
2022/02/15 10:09:52;;;;;;;3.40;1.70;;;9.10;70.00;;;;;;5024522;28;20185;-89
2022/02/15 10:12:19;;;;;;;3.97;2.03;;;9.30;69.90;;;;;;5025371;28;20212;-90
2022/02/15 10:14:52;;;;;;;6.55;1.90;;;9.30;69.50;;;;;;5023935;28;20182;-90
2022/02/15 10:17:19;;;;;;;5.22;1.50;;;9.40;69.30;;;;;;5018381;28;20654;-89
2022/02/15 10:19:47;;;;;;;5.43;2.30;;;9.50;68.90;;;;;;5018357;28;20212;-89
2022/02/15 10:22:18;;;;;;;10.27;2.08;;;9.40;68.50;;;;;;5018208;28;20182;-87
2022/02/15 10:24:58;;;;;;;4.68;1.88;;;9.30;68.60;;;;;;5018385;28;20166;-89
2022/02/15 10:27:31;;;;;;;4.03;1.75;;;9.20;68.80;;;;;;5018226;28;20708;-89
2022/02/15 10:29:58;;;;;;;4.63;1.70;;;9.30;68.80;;;;;;5018287;28;20209;-89
2022/02/15 10:32:25;;;;;;;4.65;1.77;;;9.30;68.80;;;;;;5017683;28;20268;-90
2022/02/15 10:34:59;;;;;;;5.78;1.90;;;9.20;68.80;;;;;;5018340;28;20273;-89
2022/02/15 10:37:32;;;;;;;3.08;2.00;;;9.20;68.90;;;;;;5018078;28;20271;-90
2022/02/15 10:40:07;;;;;;;6.63;2.05;;;9.50;69.10;;;;;;5019175;28;20201;-89
2022/02/15 10:42:33;;;;;;;6.00;2.00;;;9.70;68.80;;;;;;5017420;28;20288;-89
2022/02/15 10:45:09;;;;;;;4.53;1.65;;;9.90;68.50;;;;;;5017485;28;20650;-89
2022/02/15 10:47:44;;;;;;;7.13;2.08;;;10.10;67.30;;;;;;5017902;28;20185;-89
2022/02/15 10:50:13;;;;;;;6.72;1.25;;;10.20;66.90;;;;;;5017364;28;20224;-89
2022/02/15 10:52:40;;;;;;;7.57;1.50;;;10.20;65.00;;;;;;5034920;28;20215;-89
2022/02/15 10:55:07;;;;;;;6.68;2.70;;;10.30;64.40;;;;;;5017948;28;20166;-89
2022/02/15 10:57:35;;;;;;;5.22;2.47;;;10.40;63.80;;;;;;5014064;28;20217;-89
2022/02/15 11:00:07;;;;;;;8.80;2.05;;;10.40;62.80;;;;;;5013834;28;20245;-88
2022/02/15 11:02:34;;;;;;;13.90;1.92;;;10.40;62.40;;;;;;5017433;28;20202;-89
2022/02/15 11:05:02;;;;;;;3.55;2.05;;;10.50;62.60;;;;;;5018014;28;20182;-89
2022/02/15 11:07:31;;;;;;;8.52;1.60;;;10.50;62.80;;;;;;5035100;28;20673;-89
2022/02/15 11:10:39;;;;;;;4.10;1.88;;;10.60;62.80;;;;;;5019253;28;20186;-89
2022/02/15 11:13:06;;;;;;;10.10;1.60;;;10.70;62.40;;;;;;5027417;28;20685;-90
2022/02/15 11:15:38;;;;;;;11.55;1.92;;;10.90;62.50;;;;;;5028328;28;20189;-89
2022/02/15 11:18:14;;;;;;;6.57;2.20;;;11.00;62.40;;;;;;5019956;28;20178;-89
2022/02/15 11:20:59;;;;;;;6.97;2.03;;;11.20;62.20;;;;;;5018060;28;20662;-89
2022/02/15 11:23:29;;;;;;;3.17;1.50;;;11.10;61.30;;;;;;5019432;28;20204;-90
2022/02/15 11:26:33;;;;;;;7.15;1.77;;;11.30;61.70;;;;;;5037035;28;20185;-89
2022/02/15 11:28:59;;;;;;;4.88;1.80;;;11.40;61.60;;;;;;5016875;28;20173;-89
2022/02/15 11:31:26;;;;;;;3.35;2.00;;;11.60;61.60;;;;;;5035196;28;20205;-89
2022/02/15 11:33:54;;;;;;;5.78;2.20;;;11.80;61.30;;;;;;5017142;28;20204;-89
2022/02/15 11:36:23;;;;;;;8.70;2.47;;;11.60;60.40;;;;;;5017205;28;20188;-90
2022/02/15 11:38:57;;;;;;;13.65;3.00;;;11.20;61.10;;;;;;5016965;28;20182;-89
2022/02/15 11:41:26;;;;;;;5.60;2.10;;;11.20;62.00;;;;;;5016843;28;20797;-89
2022/02/15 11:44:04;;;;;;;6.75;2.30;;;11.50;61.80;;;;;;5034610;28;20644;-89
2022/02/15 11:46:31;;;;;;;5.53;2.40;;;11.80;61.90;;;;;;5017904;28;20166;-89
2022/02/15 11:49:15;;;;;;;5.88;2.08;;;12.10;61.50;;;;;;5017434;28;20703;-89
2022/02/15 11:51:43;;;;;;;9.13;3.40;;;12.20;60.40;;;;;;5017143;28;20170;-89
2022/02/15 11:54:11;;;;;;;11.20;2.80;;;12.20;59.90;;;;;;5016923;28;20213;-89
2022/02/15 11:56:38;;;;;;;7.97;2.40;;;12.20;59.80;;;;;;5016824;28;20659;-90
2022/02/15 11:59:17;;;;;;;8.27;2.15;;;12.10;59.80;;;;;;5033174;28;20174;-89
2022/02/15 12:01:53;;;;;;;13.25;2.65;;;12.20;60.00;;;;;;5017251;28;20190;-89
2022/02/15 12:04:19;;;;;;;6.40;2.33;;;12.00;59.50;;;;;;5017178;28;20243;-89
2022/02/15 12:06:48;;;;;;;5.37;2.20;;;12.10;60.00;;;;;;5017917;28;20170;-89
2022/02/15 12:09:14;;;;;;;4.78;1.77;;;12.00;59.50;;;;;;5018454;28;20688;-89
2022/02/15 12:11:42;;;;;;;7.75;2.30;;;12.00;59.60;;;;;;5019421;28;20205;-89
2022/02/15 12:14:14;;;;;;;3.13;2.13;;;12.00;58.90;;;;;;5024795;28;20198;-88
2022/02/15 12:16:43;;;;;;;6.68;2.05;;;12.10;59.00;;;;;;5028865;28;20212;-89
2022/02/15 12:19:18;;;;;;;5.00;2.60;;;12.20;58.70;;;;;;5023174;28;20209;-89
2022/02/15 12:21:44;;;;;;;14.20;2.95;;;12.30;59.00;;;;;;5022054;28;20683;-89
2022/02/15 12:24:10;;;;;;;12.73;2.10;;;12.10;58.70;;;;;;5020427;28;20292;-88
2022/02/15 12:26:39;;;;;;;5.87;2.30;;;11.50;59.50;;;;;;5022255;28;20220;-90
2022/02/15 12:29:06;;;;;;;2.33;1.90;;;11.50;60.00;;;;;;5022218;28;20197;-89
2022/02/15 12:31:32;;;;;;;8.45;2.55;;;11.50;60.10;;;;;;5021946;28;20197;-89
2022/02/15 12:33:58;;;;;;;8.10;2.33;;;11.60;60.30;;;;;;5038344;28;20197;-90
2022/02/15 12:36:24;;;;;;;3.13;1.65;;;11.70;60.30;;;;;;5022018;28;20676;-90
2022/02/15 12:38:53;;;;;;;4.88;2.10;;;12.00;60.40;;;;;;5022858;28;20186;-90
2022/02/15 12:41:20;;;;;;;16.13;2.30;;;12.10;59.80;;;;;;5023401;28;20255;-89
2022/02/15 12:43:54;;;;;;;4.53;2.20;;;11.70;59.40;;;;;;5025793;28;20280;-89
2022/02/15 12:46:20;;;;;;;6.13;2.03;;;12.00;59.90;;;;;;5026154;28;20200;-89
2022/02/15 12:48:45;;;;;;;7.77;2.43;;;11.90;59.80;;;;;;5025205;28;20178;-90
2022/02/15 12:51:11;;;;;;;9.40;2.23;;;12.10;60.00;;;;;;5025895;28;20463;-89
2022/02/15 12:53:37;;;;;;;10.53;2.43;;;12.30;59.60;;;;;;5027189;28;20222;-90
2022/02/15 12:56:05;;;;;;;7.97;1.65;;;12.30;59.10;;;;;;5023374;28;20436;-89
2022/02/15 12:58:33;;;;;;;8.85;2.40;;;12.30;59.20;;;;;;5020604;28;20198;-90